Time;durP1;ratioP1;P1;durP2;ratioP2;P2;SDS_P1;SDS_P2;PMS_P1;PMS_P2;Temp;Humidity;BMP_temperature;BMP_pressure;BME280_temperature;BME280_humidity;BME280_pressure;Samples;Min_cycle;Max_cycle;Signal;HPM_P1;HPM_P2
2022/05/23 00:01:50;;;;;;;4.20;2.90;;;;;;;10.64;69.03;100080.58;105887;1276;25328;-74
2022/05/23 00:04:17;;;;;;;2.70;2.30;;;;;;;10.62;69.01;100086.94;105807;1277;22537;-75
2022/05/23 00:06:46;;;;;;;3.60;2.30;;;;;;;10.60;68.98;100085.92;105981;1275;22546;-75
2022/05/23 00:09:14;;;;;;;3.10;2.20;;;;;;;10.52;69.05;100089.04;105746;1277;22556;-72
2022/05/23 00:11:42;;;;;;;5.40;2.60;;;;;;;10.52;69.28;100091.67;105956;1276;25314;-75
2022/05/23 00:14:12;;;;;;;4.00;2.70;;;;;;;10.55;69.25;100094.27;105816;1277;22560;-77
2022/05/23 00:16:44;;;;;;;3.10;2.80;;;;;;;10.52;69.33;100097.13;105909;1276;25502;-74
2022/05/23 00:19:12;;;;;;;3.50;2.30;;;;;;;10.54;69.46;100092.35;105860;1275;23988;-73
2022/05/23 00:21:41;;;;;;;5.30;2.40;;;;;;;10.50;69.51;100092.39;105923;1275;24235;-73
2022/05/23 00:24:10;;;;;;;3.10;2.30;;;;;;;10.51;69.53;100088.52;106023;1274;22561;-73
2022/05/23 00:26:39;;;;;;;3.30;2.90;;;;;;;10.54;69.44;100090.77;105697;1276;25255;-74
2022/05/23 00:29:06;;;;;;;3.40;2.70;;;;;;;10.57;69.49;100096.35;105901;1275;24470;-72
2022/05/23 00:31:34;;;;;;;3.30;2.20;;;;;;;10.59;69.35;100093.15;105919;1275;22559;-76
2022/05/23 00:36:47;;;;;;;3.00;2.50;;;;;;;10.57;69.33;100093.36;105920;1276;22731;-78
2022/05/23 00:39:13;;;;;;;3.40;2.70;;;;;;;10.55;69.36;100100.26;105868;1275;22549;-76
2022/05/23 00:44:33;;;;;;;4.40;3.10;;;;;;;10.53;69.48;100102.92;105744;1276;26526;-74
2022/05/23 00:47:20;;;;;;;3.70;2.60;;;;;;;10.49;69.50;100107.21;105856;1275;22537;-74
2022/05/23 00:49:47;;;;;;;3.40;2.50;;;;;;;10.45;69.59;100112.33;105988;1275;26505;-74
2022/05/23 00:52:25;;;;;;;4.80;2.70;;;;;;;10.41;69.58;100114.32;105761;1277;24060;-76
2022/05/23 00:54:56;;;;;;;3.30;2.50;;;;;;;10.41;69.77;100112.54;105889;1277;22636;-79
2022/05/23 00:57:37;;;;;;;4.70;2.60;;;;;;;10.39;69.87;100107.99;105952;1277;26675;-77
2022/05/23 01:00:08;;;;;;;4.00;2.60;;;;;;;10.44;69.90;100108.11;105994;1274;22845;-75
2022/05/23 01:02:36;;;;;;;4.40;2.90;;;;;;;10.45;69.91;100110.56;106038;1275;24432;-74
2022/05/23 01:05:05;;;;;;;4.20;2.80;;;;;;;10.48;69.91;100109.00;105857;1275;22734;-75
2022/05/23 01:07:33;;;;;;;4.90;2.70;;;;;;;10.47;69.86;100105.83;105915;1276;25373;-73
2022/05/23 01:09:59;;;;;;;3.30;3.00;;;;;;;10.46;69.86;100102.65;105838;1277;22641;-74
2022/05/23 01:12:28;;;;;;;7.50;2.60;;;;;;;10.51;69.91;100107.02;105949;1275;24330;-82
2022/05/23 01:14:57;;;;;;;2.90;2.50;;;;;;;10.58;69.89;100108.85;105923;1276;25366;-75
2022/05/23 01:17:27;;;;;;;3.30;2.70;;;;;;;10.66;69.75;100104.15;106464;1275;22563;-74
2022/05/23 01:19:55;;;;;;;4.90;3.00;;;;;;;10.62;69.44;100104.20;107471;1277;22489;-72
2022/05/23 01:22:54;;;;;;;4.20;3.10;;;;;;;10.63;69.62;100107.38;106397;1276;24703;-74
2022/05/23 01:25:36;;;;;;;3.20;2.40;;;;;;;10.69;69.43;100111.52;105895;1276;22555;-74
2022/05/23 01:28:03;;;;;;;4.00;2.90;;;;;;;10.61;69.13;100115.13;105888;1274;22559;-74
2022/05/23 01:30:33;;;;;;;3.40;2.60;;;;;;;10.49;69.29;100117.05;105940;1274;23020;-75
2022/05/23 01:33:11;;;;;;;6.60;2.70;;;;;;;10.47;69.43;100122.02;105756;1277;22531;-72
2022/05/23 01:35:39;;;;;;;3.60;2.50;;;;;;;10.46;69.57;100120.80;105738;1277;23981;-74
2022/05/23 01:38:07;;;;;;;3.40;2.30;;;;;;;10.48;69.65;100117.25;105812;1276;22542;-75
2022/05/23 01:40:49;;;;;;;2.80;2.60;;;;;;;10.45;69.60;100122.19;105936;1275;22564;-75
2022/05/23 01:43:22;;;;;;;4.40;3.00;;;;;;;10.40;69.59;100118.36;105855;1276;24742;-73
2022/05/23 01:46:08;;;;;;;6.60;3.00;;;;;;;10.37;69.74;100122.11;105864;1276;22531;-72
2022/05/23 01:48:56;;;;;;;4.80;3.10;;;;;;;10.27;69.85;100123.83;105755;1275;22640;-72
2022/05/23 01:51:23;;;;;;;3.50;2.40;;;;;;;10.23;69.96;100128.62;105871;1276;22535;-74
2022/05/23 01:53:50;;;;;;;4.30;2.80;;;;;;;10.21;70.31;100124.59;105978;1275;22560;-73
2022/05/23 01:56:17;;;;;;;5.70;3.00;;;;;;;10.29;70.44;100123.80;105898;1275;22578;-77
2022/05/23 02:01:39;;;;;;;3.90;2.60;;;;;;;10.38;70.04;100124.21;105976;1275;22587;-72
2022/05/23 02:04:08;;;;;;;5.30;3.30;;;;;;;10.32;70.09;100121.11;105842;1275;22531;-73
2022/05/23 02:06:42;;;;;;;5.20;3.60;;;;;;;10.26;70.32;100120.65;105861;1275;22562;-73
2022/05/23 02:09:26;;;;;;;4.60;3.30;;;;;;;10.22;70.45;100119.83;105889;1275;22563;-79
2022/05/23 02:12:23;;;;;;;5.30;3.20;;;;;;;10.20;70.56;100122.48;105802;1276;22892;-72
2022/05/23 02:14:51;;;;;;;4.50;3.30;;;;;;;10.13;70.57;100121.16;106030;1275;22565;-73
2022/05/23 02:17:53;;;;;;;7.30;3.10;;;;;;;10.09;70.84;100122.27;105441;1282;25245;-74
2022/05/23 02:20:21;;;;;;;8.30;3.60;;;;;;;10.09;70.96;100124.73;105669;1278;25124;-76
2022/05/23 02:22:50;;;;;;;9.20;3.50;;;;;;;10.11;71.19;100124.88;106176;1276;22547;-74
2022/05/23 02:25:23;;;;;;;9.60;4.10;;;;;;;10.17;71.04;100123.75;106037;1276;22557;-73
2022/05/23 02:27:50;;;;;;;5.60;3.80;;;;;;;10.19;71.16;100129.72;106114;1275;24282;-71
2022/05/23 02:30:18;;;;;;;7.10;3.30;;;;;;;10.21;71.08;100130.77;105895;1275;24231;-72
2022/05/23 02:32:46;;;;;;;4.80;3.60;;;;;;;10.14;70.94;100127.84;105948;1275;22599;-76
2022/05/23 02:35:15;;;;;;;7.30;3.60;;;;;;;10.10;71.14;100129.12;105756;1275;22543;-73
2022/05/23 02:37:42;;;;;;;6.20;3.70;;;;;;;10.13;71.27;100134.55;106123;1276;22646;-76
2022/05/23 02:40:10;;;;;;;4.80;3.50;;;;;;;10.18;71.40;100128.84;105993;1275;25387;-71
2022/05/23 02:42:37;;;;;;;7.00;3.60;;;;;;;10.21;71.25;100120.02;105904;1275;22550;-70
2022/05/23 02:45:06;;;;;;;4.70;3.40;;;;;;;10.30;71.14;100125.02;105720;1275;23204;-69
2022/05/23 02:47:35;;;;;;;4.70;3.70;;;;;;;10.35;71.12;100123.90;105915;1276;22568;-73
2022/05/23 02:50:06;;;;;;;6.50;4.10;;;;;;;10.34;70.94;100123.20;105804;1275;22537;-73
2022/05/23 02:52:50;;;;;;;4.40;3.80;;;;;;;10.36;71.05;100125.64;106010;1275;23189;-71
2022/05/23 02:55:20;;;;;;;8.00;3.20;;;;;;;10.41;70.99;100127.52;106045;1276;22532;-70
2022/05/23 02:57:48;;;;;;;5.70;3.50;;;;;;;10.39;70.84;100121.91;105831;1275;22540;-69
2022/05/23 03:00:19;;;;;;;6.00;3.60;;;;;;;10.42;70.83;100120.12;105768;1276;24302;-69
2022/05/23 03:03:04;;;;;;;5.90;3.10;;;;;;;10.52;70.96;100125.30;105845;1276;22537;-69
2022/05/23 03:05:53;;;;;;;7.10;3.60;;;;;;;10.54;70.75;100119.65;106078;1275;22557;-73
2022/05/23 03:08:22;;;;;;;6.80;3.50;;;;;;;10.57;70.66;100118.71;105879;1276;22615;-72
2022/05/23 03:10:51;;;;;;;4.10;3.30;;;;;;;10.57;70.56;100118.02;106070;1274;22643;-73
2022/05/23 03:13:20;;;;;;;5.70;3.20;;;;;;;10.57;70.49;100118.73;105999;1275;22591;-75
2022/05/23 03:15:47;;;;;;;4.70;3.30;;;;;;;10.57;70.36;100120.48;105877;1276;22692;-70
2022/05/23 03:18:20;;;;;;;6.00;3.80;;;;;;;10.51;70.33;100116.86;105922;1275;22566;-70
2022/05/23 03:21:01;;;;;;;5.40;3.30;;;;;;;10.56;70.52;100117.67;105803;1275;22548;-73
2022/05/23 03:29:02;;;;;;;5.50;3.70;;;;;;;10.55;70.30;100124.20;105907;1275;22550;-72
2022/05/23 03:31:30;;;;;;;5.40;3.70;;;;;;;10.50;70.25;100124.63;106081;1274;22745;-74
2022/05/23 03:33:57;;;;;;;6.80;3.80;;;;;;;10.46;70.20;100123.08;105991;1276;22557;-76
2022/05/23 03:36:23;;;;;;;6.70;3.90;;;;;;;10.43;70.27;100125.56;106098;1275;24762;-72
2022/05/23 03:38:50;;;;;;;6.80;4.50;;;;;;;10.43;70.36;100124.85;105883;1275;22688;-72
2022/05/23 03:41:18;;;;;;;8.30;4.90;;;;;;;10.42;70.35;100125.39;105869;1275;22573;-73
2022/05/23 03:43:45;;;;;;;10.50;4.50;;;;;;;10.47;70.57;100125.35;105956;1275;22549;-74
2022/05/23 03:46:13;;;;;;;6.70;4.10;;;;;;;10.51;70.45;100121.44;105840;1275;25275;-72
2022/05/23 03:48:41;;;;;;;7.60;4.00;;;;;;;10.52;70.15;100127.23;105989;1275;22864;-76
2022/05/23 03:51:09;;;;;;;7.70;4.10;;;;;;;10.48;70.25;100123.05;105799;1276;22541;-72
2022/05/23 03:53:37;;;;;;;9.00;4.40;;;;;;;10.52;70.46;100122.83;105798;1276;24238;-75
2022/05/23 03:56:06;;;;;;;4.20;3.00;;;;;;;10.57;70.28;100119.77;105866;1275;22592;-74
2022/05/23 03:58:36;;;;;;;6.10;3.60;;;;;;;10.55;70.25;100123.15;105786;1276;22563;-72
2022/05/23 04:01:30;;;;;;;6.00;3.90;;;;;;;10.58;70.14;100118.01;105971;1274;22581;-73
2022/05/23 04:04:26;;;;;;;6.90;3.50;;;;;;;10.61;70.30;100122.02;105723;1275;24271;-78
2022/05/23 04:07:16;;;;;;;7.00;3.50;;;;;;;10.65;70.05;100125.83;105479;1275;22537;-73
2022/05/23 04:09:54;;;;;;;8.30;3.50;;;;;;;10.60;70.12;100125.20;105807;1275;22627;-72
2022/05/23 04:12:25;;;;;;;5.00;3.50;;;;;;;10.62;70.18;100128.51;105758;1275;22637;-79
2022/05/23 04:14:52;;;;;;;3.80;3.00;;;;;;;10.70;70.27;100129.80;106121;1274;22538;-76
2022/05/23 04:17:22;;;;;;;6.50;3.20;;;;;;;10.81;70.21;100136.52;105826;1275;22546;-77
2022/05/23 04:19:49;;;;;;;6.30;3.50;;;;;;;10.84;69.66;100140.71;105810;1275;23960;-74
2022/05/23 04:22:21;;;;;;;6.20;3.40;;;;;;;10.85;69.58;100141.05;105901;1275;25255;-78
2022/05/23 04:25:05;;;;;;;6.10;4.00;;;;;;;10.86;69.57;100140.86;105950;1275;25261;-87
2022/05/23 04:27:32;;;;;;;5.30;3.90;;;;;;;10.90;69.58;100141.34;107083;1274;22485;-88
2022/05/23 04:29:58;;;;;;;7.20;4.20;;;;;;;10.92;69.25;100143.79;106781;1275;22573;-87
2022/05/23 04:35:23;;;;;;;5.80;3.80;;;;;;;10.80;69.17;100142.17;106781;1275;22604;-90
2022/05/23 04:37:53;;;;;;;10.40;4.80;;;;;;;10.80;69.15;100142.55;106978;1275;22663;-92
2022/05/23 04:40:28;;;;;;;7.70;4.80;;;;;;;10.86;69.31;100138.92;107251;1275;23768;-89
2022/05/23 04:42:55;;;;;;;7.40;5.10;;;;;;;10.99;69.29;100139.45;107017;1277;25833;-87
2022/05/23 04:45:23;;;;;;;8.60;4.40;;;;;;;11.12;69.24;100135.55;106004;1277;22616;-78
2022/05/23 04:50:51;;;;;;;7.20;4.90;;;;;;;11.36;68.51;100133.05;105644;1280;24698;-85
2022/05/23 04:53:21;;;;;;;8.70;4.60;;;;;;;11.34;68.20;100131.16;105571;1279;22547;-81
2022/05/23 04:56:00;;;;;;;6.60;3.80;;;;;;;11.38;68.32;100131.08;105908;1280;25276;-82
2022/05/23 04:58:28;;;;;;;3.90;3.30;;;;;;;11.39;67.89;100133.55;105714;1280;26497;-81
2022/05/23 05:00:56;;;;;;;7.60;3.70;;;;;;;11.32;67.66;100133.48;105671;1279;22529;-80
2022/05/23 05:03:23;;;;;;;5.50;3.70;;;;;;;11.31;67.89;100133.67;105389;1279;23328;-83
2022/05/23 05:05:51;;;;;;;6.80;3.20;;;;;;;11.38;67.87;100136.91;105676;1279;25289;-82
2022/05/23 05:08:19;;;;;;;8.10;3.80;;;;;;;11.37;67.53;100135.52;105581;1276;22583;-80
2022/05/23 05:10:47;;;;;;;7.30;3.60;;;;;;;11.36;67.58;100131.29;105919;1277;22564;-82
2022/05/23 05:13:14;;;;;;;10.30;3.70;;;;;;;11.45;67.77;100132.02;105877;1275;22539;-82
2022/05/23 05:15:41;;;;;;;2.70;2.50;;;;;;;11.51;67.32;100132.63;105624;1281;24237;-83
2022/05/23 05:18:18;;;;;;;4.80;3.20;;;;;;;11.51;67.00;100131.56;105415;1281;25326;-85
2022/05/23 05:20:49;;;;;;;9.10;3.70;;;;;;;11.49;66.91;100132.84;105927;1281;22547;-84
2022/05/23 05:23:37;;;;;;;3.90;3.20;;;;;;;11.56;66.85;100140.67;105085;1284;22552;-85
2022/05/23 05:26:33;;;;;;;4.50;3.50;;;;;;;11.61;66.54;100140.77;104723;1284;22556;-84
2022/05/23 05:29:00;;;;;;;5.90;3.20;;;;;;;11.66;66.64;100143.85;105164;1284;22548;-83
2022/05/23 05:31:39;;;;;;;7.30;3.40;;;;;;;11.74;66.50;100141.05;104940;1284;22549;-84
2022/05/23 05:34:20;;;;;;;5.20;3.70;;;;;;;11.84;66.21;100144.75;105169;1281;22558;-84
2022/05/23 05:36:53;;;;;;;4.60;2.70;;;;;;;11.88;65.88;100136.57;105566;1278;25937;-87
2022/05/23 05:39:23;;;;;;;7.50;3.10;;;;;;;11.93;65.64;100141.76;105792;1279;25376;-79
2022/05/23 05:42:00;;;;;;;4.30;3.20;;;;;;;11.99;65.44;100141.85;105646;1275;22603;-81
2022/05/23 05:44:37;;;;;;;9.10;3.80;;;;;;;11.96;65.18;100139.95;105827;1275;25435;-80
2022/05/23 05:47:09;;;;;;;6.30;3.60;;;;;;;11.92;64.91;100143.73;106122;1274;22537;-82
2022/05/23 05:49:56;;;;;;;3.80;3.40;;;;;;;11.88;64.99;100145.56;105817;1275;23719;-81
2022/05/23 05:52:26;;;;;;;6.10;3.60;;;;;;;11.97;65.25;100144.69;105946;1275;24236;-81
2022/05/23 05:55:00;;;;;;;3.50;2.90;;;;;;;12.07;65.12;100140.99;105897;1275;22981;-80
2022/05/23 05:57:29;;;;;;;4.70;3.60;;;;;;;12.12;64.98;100146.38;105827;1275;22573;-82
2022/05/23 06:00:03;;;;;;;7.50;3.40;;;;;;;12.18;65.12;100143.97;105752;1275;22584;-81
2022/05/23 06:02:30;;;;;;;7.80;3.90;;;;;;;12.25;64.87;100137.30;105966;1276;22532;-80
2022/05/23 06:04:57;;;;;;;6.40;3.70;;;;;;;12.30;64.74;100135.78;105579;1275;24398;-80
2022/05/23 06:13:18;;;;;;;;;;;;;;;12.62;64.05;100141.14;105955;1276;25436;-79
2022/05/23 06:15:59;;;;;;;4.50;3.20;;;;;;;12.72;63.75;100144.30;105772;1276;25374;-81
2022/05/23 06:18:33;;;;;;;8.10;4.40;;;;;;;12.72;63.73;100141.27;105873;1275;25364;-79
2022/05/23 06:21:00;;;;;;;5.00;3.40;;;;;;;12.80;63.70;100139.16;105745;1279;24523;-80
2022/05/23 06:23:27;;;;;;;5.70;3.30;;;;;;;12.88;63.37;100140.04;105751;1279;24818;-82
2022/05/23 06:26:10;;;;;;;5.50;3.40;;;;;;;12.98;63.10;100141.04;106176;1281;25901;-81
2022/05/23 06:28:56;;;;;;;3.60;3.00;;;;;;;13.03;62.60;100136.88;106130;1281;22552;-81
2022/05/23 06:31:23;;;;;;;5.10;3.60;;;;;;;13.09;62.66;100137.80;105633;1280;24479;-83
2022/05/23 06:33:50;;;;;;;6.30;2.90;;;;;;;13.13;62.43;100143.89;105617;1281;22528;-80
2022/05/23 06:36:24;;;;;;;5.10;3.40;;;;;;;13.12;62.35;100149.02;106159;1280;22550;-82
2022/05/23 06:38:51;;;;;;;3.60;3.30;;;;;;;13.16;62.33;100147.02;106188;1275;22535;-81
2022/05/23 06:41:44;;;;;;;6.00;3.70;;;;;;;13.15;61.95;100149.85;105747;1280;24204;-83
2022/05/23 06:44:34;;;;;;;5.80;3.30;;;;;;;13.10;61.93;100149.08;106180;1279;25286;-79
2022/05/23 06:47:19;;;;;;;4.90;3.40;;;;;;;13.18;61.66;100155.63;107163;1279;23886;-78
2022/05/23 06:50:06;;;;;;;4.70;3.70;;;;;;;13.22;61.72;100152.88;106723;1280;24245;-81
2022/05/23 06:52:56;;;;;;;6.70;3.20;;;;;;;13.35;61.85;100159.09;105495;1280;23189;-82
2022/05/23 06:55:37;;;;;;;6.80;3.40;;;;;;;13.40;60.99;100163.40;105674;1280;25323;-80
2022/05/23 06:58:04;;;;;;;5.00;3.50;;;;;;;13.40;60.99;100161.11;105667;1280;22533;-81
2022/05/23 07:00:31;;;;;;;4.20;3.10;;;;;;;13.44;60.97;100161.17;105518;1280;22530;-81
2022/05/23 07:03:14;;;;;;;6.60;3.80;;;;;;;13.47;60.78;100162.19;105941;1279;25309;-78
2022/05/23 07:14:17;;;;;;;3.70;3.10;;;;;;;13.64;60.56;100148.33;105730;1279;25304;-82
2022/05/23 07:16:45;;;;;;;4.70;3.40;;;;;;;13.68;60.57;100151.60;105595;1279;22748;-80
2022/05/23 07:19:12;;;;;;;3.90;2.80;;;;;;;13.74;60.63;100155.88;105651;1275;22615;-80
2022/05/23 07:21:49;;;;;;;3.60;2.80;;;;;;;13.81;60.60;100161.53;105722;1275;25308;-80
2022/05/23 07:24:17;;;;;;;8.20;3.00;;;;;;;13.81;60.10;100159.21;105862;1275;24747;-80
2022/05/23 07:26:51;;;;;;;6.20;3.30;;;;;;;13.83;59.96;100160.94;105962;1275;26525;-80
2022/05/23 07:29:19;;;;;;;4.00;2.70;;;;;;;13.81;60.25;100160.28;105880;1275;25372;-79
2022/05/23 07:31:47;;;;;;;4.90;2.90;;;;;;;13.88;60.14;100160.30;105930;1275;25365;-82
2022/05/23 07:34:14;;;;;;;3.10;2.70;;;;;;;13.93;59.89;100167.59;105778;1275;22629;-80
2022/05/23 07:36:42;;;;;;;4.10;2.70;;;;;;;14.00;59.92;100172.17;105949;1276;25264;-82
2022/05/23 07:39:09;;;;;;;7.10;2.60;;;;;;;14.07;59.49;100169.85;106073;1276;22553;-82
2022/05/23 07:41:54;;;;;;;4.10;2.60;;;;;;;14.06;58.23;100164.76;105941;1275;25599;-81
2022/05/23 07:44:24;;;;;;;6.10;3.30;;;;;;;14.03;58.39;100164.83;105996;1278;25370;-81
2022/05/23 07:46:53;;;;;;;4.50;2.80;;;;;;;14.08;58.41;100162.59;105812;1275;22571;-83
2022/05/23 07:49:21;;;;;;;6.50;3.20;;;;;;;14.15;58.17;100163.81;105887;1276;22566;-81
2022/05/23 07:52:14;;;;;;;3.70;2.90;;;;;;;14.22;58.01;100163.25;105972;1275;23941;-82
2022/05/23 08:00:34;;;;;;;6.60;3.40;;;;;;;14.60;57.79;100155.79;105765;1275;25252;-82
2022/05/23 08:03:18;;;;;;;6.80;2.90;;;;;;;14.71;57.24;100153.52;105907;1275;25374;-83
2022/05/23 08:05:59;;;;;;;5.00;3.20;;;;;;;14.79;56.78;100155.27;106044;1274;25237;-86
2022/05/23 08:08:26;;;;;;;5.40;2.90;;;;;;;14.81;56.33;100152.73;106135;1276;22557;-81
2022/05/23 08:10:54;;;;;;;5.20;2.80;;;;;;;14.87;55.80;100152.55;105944;1275;22554;-82
2022/05/23 08:13:21;;;;;;;3.40;2.70;;;;;;;14.93;55.86;100147.42;105780;1279;22559;-82
2022/05/23 08:15:48;;;;;;;4.50;2.50;;;;;;;15.05;55.72;100155.02;105650;1281;22879;-82
2022/05/23 08:18:18;;;;;;;3.70;2.50;;;;;;;15.18;55.53;100153.90;105526;1281;23030;-77
2022/05/23 08:20:54;;;;;;;3.60;2.30;;;;;;;15.26;55.98;100154.88;105639;1279;25245;-81
2022/05/23 08:23:29;;;;;;;3.40;2.30;;;;;;;15.39;55.49;100150.58;105698;1281;25914;-81
2022/05/23 08:26:09;;;;;;;4.10;2.50;;;;;;;15.54;54.72;100155.23;105510;1281;25340;-83
2022/05/23 08:28:41;;;;;;;4.20;1.80;;;;;;;15.68;53.30;100155.64;105701;1281;22780;-82
2022/05/23 08:31:08;;;;;;;5.40;2.00;;;;;;;15.73;52.07;100150.49;105627;1275;22572;-82
2022/05/23 08:33:42;;;;;;;5.30;1.90;;;;;;;15.73;52.40;100149.96;105751;1275;25346;-81
2022/05/23 08:36:29;;;;;;;3.50;2.10;;;;;;;15.85;52.65;100148.14;105720;1277;22858;-81
2022/05/23 08:38:57;;;;;;;2.70;2.00;;;;;;;16.01;52.48;100143.35;105761;1275;22570;-77
2022/05/23 08:41:32;;;;;;;4.10;2.00;;;;;;;16.19;52.56;100145.73;105749;1277;22567;-79
2022/05/23 08:44:27;;;;;;;6.30;2.50;;;;;;;16.41;52.53;100138.37;105958;1276;22638;-80
2022/05/23 08:46:57;;;;;;;3.30;2.10;;;;;;;16.63;51.86;100130.23;105969;1275;22554;-82
2022/05/23 08:49:37;;;;;;;2.40;1.90;;;;;;;16.81;52.36;100135.23;106039;1275;22570;-79
2022/05/23 08:52:12;;;;;;;5.70;2.00;;;;;;;17.04;51.67;100135.06;105825;1278;25264;-78
2022/05/23 08:54:39;;;;;;;2.90;1.80;;;;;;;17.18;50.85;100134.52;105866;1275;23998;-79
2022/05/23 08:57:33;;;;;;;3.70;2.60;;;;;;;17.35;51.00;100134.74;105920;1275;22639;-81
2022/05/23 09:00:07;;;;;;;3.30;1.70;;;;;;;17.56;50.82;100133.84;106107;1276;23933;-78
2022/05/23 09:02:55;;;;;;;2.20;2.00;;;;;;;17.79;50.76;100132.70;106167;1275;22721;-78
2022/05/23 09:05:33;;;;;;;3.50;1.80;;;;;;;18.09;50.19;100129.45;106182;1276;25717;-80
2022/05/23 09:08:28;;;;;;;1.80;1.50;;;;;;;18.35;49.10;100132.61;106077;1276;22546;-79
2022/05/23 09:11:22;;;;;;;2.80;1.70;;;;;;;18.47;48.33;100137.06;106126;1276;25706;-81
2022/05/23 09:13:51;;;;;;;3.20;1.80;;;;;;;18.52;47.89;100132.34;106133;1276;24261;-79
2022/05/23 09:16:18;;;;;;;1.90;1.60;;;;;;;18.59;47.91;100130.80;106827;1276;22562;-79
2022/05/23 09:18:53;;;;;;;1.60;1.50;;;;;;;18.66;47.67;100128.70;107665;1276;22486;-80
2022/05/23 09:21:20;;;;;;;7.00;1.80;;;;;;;18.78;47.27;100124.36;108117;1276;22592;-80
2022/05/23 09:23:51;;;;;;;4.00;1.90;;;;;;;18.91;46.71;100127.14;107677;1276;22580;-80
2022/05/23 09:26:27;;;;;;;3.50;2.30;;;;;;;18.99;46.19;100129.63;105973;1276;24384;-80
2022/05/23 09:28:54;;;;;;;4.60;2.00;;;;;;;19.02;45.54;100126.44;106108;1276;22653;-81
2022/05/23 09:31:34;;;;;;;4.00;2.10;;;;;;;18.89;45.73;100123.52;106093;1276;22702;-82
2022/05/23 09:34:02;;;;;;;3.10;2.10;;;;;;;18.67;44.90;100120.43;105940;1276;22707;-82
2022/05/23 09:36:37;;;;;;;4.00;2.40;;;;;;;18.42;45.09;100119.99;106090;1276;26204;-81
2022/05/23 09:39:07;;;;;;;3.70;2.10;;;;;;;18.33;44.89;100117.91;105932;1276;22562;-81
2022/05/23 09:47:44;;;;;;;3.90;1.80;;;;;;;18.72;44.14;100102.55;105437;1281;22580;-81
2022/05/23 09:50:26;;;;;;;3.00;2.00;;;;;;;18.73;44.17;100102.69;105726;1281;22659;-79
2022/05/23 09:53:29;;;;;;;3.70;1.70;;;;;;;18.77;43.88;100101.58;104831;1287;25577;-84
2022/05/23 09:56:34;;;;;;;2.20;1.80;;;;;;;18.66;43.52;100102.98;104884;1287;22837;-81
2022/05/23 09:59:06;;;;;;;2.40;1.80;;;;;;;18.47;43.58;100102.80;104929;1285;22566;-81
2022/05/23 10:01:40;;;;;;;4.80;1.80;;;;;;;18.51;44.00;100099.04;104982;1285;25328;-80
2022/05/23 10:04:16;;;;;;;4.30;1.80;;;;;;;18.69;44.13;100097.34;105056;1285;25428;-77
2022/05/23 10:06:50;;;;;;;2.50;1.70;;;;;;;19.02;44.65;100093.26;105413;1279;25243;-80
2022/05/23 10:09:54;;;;;;;1.70;1.50;;;;;;;19.42;44.55;100096.33;105744;1279;22591;-77
2022/05/23 10:12:35;;;;;;;1.70;1.50;;;;;;;19.86;43.66;100094.45;105635;1278;25223;-79
2022/05/23 10:15:28;;;;;;;3.50;2.10;;;;;;;20.02;42.56;100093.98;105899;1277;22706;-80
2022/05/23 10:18:08;;;;;;;3.00;1.70;;;;;;;19.98;41.71;100096.84;105831;1278;25450;-81
2022/05/23 10:20:41;;;;;;;5.60;2.50;;;;;;;19.84;41.32;100093.29;105817;1278;25488;-82
2022/05/23 10:23:22;;;;;;;3.70;2.00;;;;;;;19.69;41.69;100093.85;105636;1278;24171;-78
2022/05/23 10:26:07;;;;;;;2.70;1.60;;;;;;;19.69;42.40;100088.49;105789;1278;22537;-80
2022/05/23 10:28:37;;;;;;;1.90;1.70;;;;;;;19.62;42.33;100091.75;105728;1278;22142;-80
2022/05/23 10:31:13;;;;;;;2.60;1.70;;;;;;;19.48;42.70;100092.25;105670;1278;22566;-80
2022/05/23 10:33:44;;;;;;;1.90;1.70;;;;;;;19.47;42.87;100094.45;105798;1278;24392;-79
2022/05/23 10:36:21;;;;;;;3.40;1.80;;;;;;;19.39;42.44;100096.84;105813;1275;22694;-85
2022/05/23 10:42:09;;;;;;;5.30;1.90;;;;;;;19.22;42.79;100090.89;105800;1275;22564;-81
2022/05/23 10:45:10;;;;;;;1.60;1.50;;;;;;;19.15;42.02;100086.92;105854;1275;25244;-79
2022/05/23 10:48:10;;;;;;;14.20;2.80;;;;;;;19.04;41.98;100082.09;105690;1278;281978;-79
2022/05/23 10:50:46;;;;;;;4.40;2.30;;;;;;;18.99;42.39;100077.89;106798;1278;22572;-79
2022/05/23 10:53:19;;;;;;;1.80;1.50;;;;;;;18.96;42.46;100073.56;106787;1278;24337;-82
2022/05/23 10:56:13;;;;;;;2.50;1.90;;;;;;;18.93;43.05;100071.77;106233;1275;22716;-84
2022/05/23 10:59:07;;;;;;;4.40;2.00;;;;;;;18.88;43.50;100067.52;105945;1276;22524;-77
2022/05/23 11:02:05;;;;;;;3.00;2.20;;;;;;;18.91;43.73;100067.58;106003;1275;22569;-77
2022/05/23 11:04:59;;;;;;;2.60;1.90;;;;;;;18.95;43.79;100065.05;105813;1281;22604;-80
2022/05/23 11:08:00;;;;;;;3.90;2.00;;;;;;;19.01;43.86;100062.77;105398;1281;24346;-79
2022/05/23 11:10:38;;;;;;;3.60;1.80;;;;;;;19.28;42.90;100064.14;105490;1281;22547;-81
2022/05/23 11:13:38;;;;;;;4.80;2.10;;;;;;;19.38;42.76;100063.27;105364;1281;25374;-80
2022/05/23 11:16:31;;;;;;;2.40;1.70;;;;;;;19.45;42.48;100057.58;105510;1281;26711;-80
2022/05/23 11:19:23;;;;;;;2.90;1.70;;;;;;;19.73;42.49;100057.60;105263;1281;22573;-81
2022/05/23 11:22:31;;;;;;;3.50;2.00;;;;;;;19.93;41.89;100054.77;105254;1276;25557;-81
2022/05/23 11:25:32;;;;;;;2.60;1.70;;;;;;;20.02;42.02;100051.96;105904;1277;22576;-81
2022/05/23 11:34:30;;;;;;;2.00;1.50;;;;;;;20.01;42.12;100057.16;105774;1276;22537;-82
2022/05/23 11:37:08;;;;;;;4.20;1.80;;;;;;;19.97;41.80;100054.73;105784;1276;22700;-79
2022/05/23 11:39:51;;;;;;;2.40;1.40;;;;;;;19.83;40.90;100052.23;105871;1276;24304;-80
2022/05/23 11:42:43;;;;;;;4.30;1.70;;;;;;;19.60;40.48;100051.27;105905;1276;22576;-80
2022/05/23 11:48:37;;;;;;;2.70;1.30;;;;;;;19.09;40.94;100053.99;106369;1276;22655;-79
2022/05/23 11:51:14;;;;;;;3.20;1.60;;;;;;;18.94;41.11;100050.81;105902;1274;22564;-81
2022/05/23 11:54:08;;;;;;;4.50;1.90;;;;;;;18.95;41.72;100052.73;105817;1275;22564;-81
2022/05/23 11:57:05;;;;;;;3.10;1.50;;;;;;;18.97;41.20;100050.70;105734;1275;22694;-80
2022/05/23 11:59:32;;;;;;;3.90;2.00;;;;;;;18.93;41.88;100045.50;105930;1275;24354;-82
2022/05/23 12:02:08;;;;;;;6.60;2.10;;;;;;;19.02;41.84;100042.03;105818;1276;22531;-81
2022/05/23 12:04:57;;;;;;;3.00;1.60;;;;;;;19.15;42.02;100046.40;105953;1274;22537;-80
2022/05/23 12:07:31;;;;;;;1.70;1.50;;;;;;;19.20;41.42;100038.52;105828;1275;22560;-80
2022/05/23 12:10:28;;;;;;;1.90;1.70;;;;;;;19.21;41.09;100035.98;105792;1275;22540;-81
2022/05/23 12:12:56;;;;;;;;;;;;;;;19.22;41.05;100029.30;105878;1275;22534;-77
2022/05/23 12:15:42;;;;;;;5.80;2.10;;;;;;;19.10;40.86;100029.86;105980;1276;24245;-79
2022/05/23 12:18:24;;;;;;;4.80;2.10;;;;;;;19.12;41.34;100032.30;105793;1275;24267;-79
2022/05/23 12:21:04;;;;;;;3.50;1.70;;;;;;;19.09;40.91;100027.98;105932;1275;23005;-81
2022/05/23 12:23:39;;;;;;;2.30;1.30;;;;;;;18.96;40.87;100025.95;105956;1276;22741;-80
2022/05/23 12:26:09;;;;;;;2.30;1.20;;;;;;;18.97;40.94;100025.84;105949;1275;22561;-81
2022/05/23 12:28:45;;;;;;;2.10;1.70;;;;;;;19.06;41.39;100023.48;106030;1275;22564;-81
2022/05/23 12:31:16;;;;;;;2.60;1.50;;;;;;;19.20;41.81;100023.14;105859;1275;24269;-80
2022/05/23 12:33:49;;;;;;;4.50;1.80;;;;;;;19.33;41.34;100023.02;105791;1275;24386;-81
2022/05/23 12:36:25;;;;;;;1.90;1.30;;;;;;;19.36;40.94;100024.31;105900;1276;22774;-81
2022/05/23 12:39:07;;;;;;;1.40;1.20;;;;;;;19.34;40.85;100021.05;105808;1276;25696;-80
2022/05/23 12:41:55;;;;;;;3.00;1.40;;;;;;;19.33;40.62;100017.48;105758;1276;22535;-80
2022/05/23 12:44:55;;;;;;;3.50;1.50;;;;;;;19.38;40.86;100015.45;105824;1276;22630;-81
2022/05/23 12:48:00;;;;;;;3.70;1.30;;;;;;;19.36;40.29;100011.27;105814;1275;24268;-79
2022/05/23 12:50:58;;;;;;;2.00;1.60;;;;;;;19.39;40.12;100007.88;105833;1275;24230;-79
2022/05/23 12:53:36;;;;;;;3.00;1.50;;;;;;;19.43;39.95;100006.26;105776;1276;22568;-80
2022/05/23 12:56:34;;;;;;;2.10;1.50;;;;;;;19.49;39.84;100003.27;105962;1274;22514;-80